createdAt,value
2017-10-13T00:09:15.738Z,1015.64
2017-10-13T00:15:54.079Z,1015.90
2017-10-13T04:10:10.709Z,1015.79
2017-10-13T04:10:18.558Z,1015.94
2017-10-13T04:10:26.693Z,1016.03
2017-10-13T04:10:34.832Z,1016.01
2017-10-13T04:10:42.975Z,1015.93
2017-10-13T04:10:51.106Z,1015.94
2017-10-13T04:10:59.250Z,1015.92
2017-10-13T04:11:07.377Z,1015.96
2017-10-13T04:11:15.510Z,1015.97
2017-10-13T04:11:23.662Z,1016.02
2017-10-13T04:11:31.807Z,1016.05
2017-10-13T04:11:39.934Z,1015.98
2017-10-13T04:11:48.090Z,1015.98
2017-10-13T04:11:56.209Z,1015.95
2017-10-13T04:12:04.346Z,1016.01
2017-10-13T04:12:12.489Z,1016.02
2017-10-13T04:12:20.814Z,1015.97
2017-10-13T04:12:28.774Z,1015.90
2017-10-13T04:12:44.650Z,1015.98
2017-10-13T04:12:52.465Z,1015.98
2017-10-13T04:13:00.794Z,1015.98
2017-10-13T04:13:16.501Z,1016.00
2017-10-13T04:13:24.501Z,1016.02
2017-10-13T04:13:32.445Z,1016.03
2017-10-13T04:13:49.833Z,1015.98
2017-10-13T04:14:02.495Z,1016.00
2017-10-13T04:14:10.114Z,1015.96
2017-10-13T04:14:18.253Z,1016.03
2017-10-13T04:14:26.381Z,1015.93
2017-10-13T04:14:34.518Z,1016.00
2017-10-13T04:14:42.658Z,1015.93
2017-10-13T04:14:50.801Z,1015.97
2017-10-13T04:15:04.713Z,1015.98
2017-10-13T04:15:12.905Z,1015.97
2017-10-13T04:15:21.044Z,1015.97
2017-10-13T04:15:29.389Z,1015.94
2017-10-13T04:15:50.866Z,1015.87
2017-10-13T04:15:59.305Z,1015.97
2017-10-13T04:16:16.525Z,1015.93
2017-10-13T04:16:24.758Z,1015.92
2017-10-13T04:16:33.064Z,1015.87
2017-10-13T04:16:41.057Z,1015.94
2017-10-13T04:16:49.013Z,1015.95
2017-10-13T04:16:57.146Z,1015.97
2017-10-13T04:17:05.278Z,1015.91
2017-10-13T04:17:13.414Z,1015.93
2017-10-13T04:17:21.557Z,1015.86
2017-10-13T04:17:29.694Z,1015.88
2017-10-13T04:17:37.834Z,1015.96
2017-10-13T04:17:45.957Z,1015.93
2017-10-13T04:17:54.370Z,1015.95
2017-10-13T04:18:02.223Z,1015.93
2017-10-13T04:18:16.313Z,1015.89
2017-10-13T04:18:30.080Z,1015.85
2017-10-13T04:18:38.317Z,1015.91
2017-10-13T04:18:53.234Z,1015.88
2017-10-13T04:21:53.342Z,1015.89
2017-10-13T04:22:01.398Z,1015.96
2017-10-13T04:22:15.785Z,1015.86
2017-10-13T04:22:23.485Z,1015.94
2017-10-13T04:22:31.628Z,1015.95
2017-10-13T04:22:39.965Z,1015.95
2017-10-13T04:22:56.726Z,1015.87
2017-10-13T04:23:07.374Z,1015.91
2017-10-13T04:23:25.346Z,1015.93
2017-10-13T04:23:44.605Z,1015.91
2017-10-13T04:23:59.131Z,1015.87
2017-10-13T04:24:08.018Z,1015.93
2017-10-13T04:24:19.813Z,1015.89
2017-10-13T04:24:35.173Z,1015.89
2017-10-13T04:24:52.872Z,1015.83
2017-10-13T04:25:01.160Z,1015.89
2017-10-13T04:25:09.279Z,1015.84
2017-10-13T04:25:17.585Z,1015.89
2017-10-13T04:25:43.058Z,1015.82
2017-10-13T04:25:54.670Z,1015.86
2017-10-13T04:26:12.062Z,1015.89
2017-10-13T04:26:21.057Z,1015.92
2017-10-13T04:26:38.921Z,1015.86
2017-10-13T04:26:48.215Z,1015.86
2017-10-13T04:26:57.781Z,1015.92
2017-10-13T04:27:06.711Z,1015.86
2017-10-13T04:27:22.237Z,1015.88
2017-10-13T04:27:40.694Z,1015.92
2017-10-13T04:27:48.229Z,1015.85
2017-10-13T04:28:04.651Z,1015.89
2017-10-13T04:28:14.454Z,1015.90
2017-10-13T04:28:23.979Z,1015.87
2017-10-13T04:28:32.054Z,1015.90
2017-10-13T04:28:41.799Z,1015.86
2017-10-13T04:28:51.628Z,1015.93
2017-10-13T04:29:09.033Z,1015.89
2017-10-13T04:29:16.802Z,1015.97
2017-10-13T04:29:25.089Z,1015.85
2017-10-13T04:29:33.106Z,1015.88
2017-10-13T04:29:41.369Z,1015.87
2017-10-13T04:29:49.490Z,1015.90
2017-10-13T04:29:57.452Z,1015.87
2017-10-13T04:30:05.594Z,1015.86
2017-10-13T04:30:13.765Z,1015.86
2017-10-13T04:30:22.057Z,1015.86
2017-10-13T04:30:30.011Z,1015.92
2017-10-13T04:30:38.318Z,1015.83
2017-10-13T04:30:53.877Z,1015.88
2017-10-13T04:31:02.592Z,1015.85
2017-10-13T04:31:11.620Z,1015.88
2017-10-13T04:31:21.370Z,1015.86
2017-10-13T04:31:31.286Z,1015.89
2017-10-13T04:31:40.995Z,1015.85
2017-10-13T04:31:49.183Z,1015.88
2017-10-13T04:31:59.183Z,1015.83
2017-10-13T04:32:16.341Z,1015.87
2017-10-13T04:32:24.065Z,1015.89
2017-10-13T04:32:36.845Z,1015.83
2017-10-13T04:32:44.898Z,1015.87
2017-10-13T04:32:53.591Z,1015.93
2017-10-13T04:33:08.641Z,1015.90
2017-10-13T04:33:16.498Z,1015.89
2017-10-13T04:33:24.821Z,1015.85
2017-10-13T04:33:40.148Z,1015.90
2017-10-13T04:34:01.223Z,1015.83
2017-10-13T04:34:14.459Z,1015.89
2017-10-13T04:34:36.058Z,1015.92
2017-10-13T04:34:44.605Z,1015.87
2017-10-13T04:34:55.521Z,1015.90
2017-10-13T04:35:03.807Z,1015.88
2017-10-13T04:35:18.530Z,1015.95
2017-10-13T04:35:35.101Z,1015.95
2017-10-13T04:35:43.041Z,1015.92
2017-10-13T04:35:51.050Z,1015.90
2017-10-13T04:35:59.193Z,1015.88
2017-10-13T04:36:07.330Z,1015.91
2017-10-13T04:36:15.478Z,1015.96
2017-10-13T04:36:23.801Z,1015.90
2017-10-13T04:36:31.746Z,1015.96
2017-10-13T04:36:39.886Z,1015.91
2017-10-13T04:36:48.077Z,1015.97
2017-10-13T04:37:02.114Z,1015.93
2017-10-13T04:37:15.078Z,1015.93
2017-10-13T04:37:31.636Z,1015.91
2017-10-13T04:37:46.903Z,1015.97
2017-10-13T04:37:55.202Z,1015.95
2017-10-13T04:38:11.111Z,1016.00
2017-10-13T04:38:25.874Z,1015.95
2017-10-13T04:38:41.824Z,1015.98
2017-10-13T04:38:50.112Z,1015.98
2017-10-13T04:39:03.460Z,1015.99
2017-10-13T04:39:18.901Z,1015.97
2017-10-13T04:39:27.722Z,1015.95
2017-10-13T04:39:43.134Z,1015.95
2017-10-13T04:39:51.498Z,1016.03
2017-10-13T04:39:59.770Z,1015.98
2017-10-13T04:40:14.953Z,1016.06
2017-10-13T04:40:34.298Z,1015.93
2017-10-13T04:44:23.927Z,1016.07
2017-10-13T04:59:58.222Z,1016.13
2017-10-13T05:00:39.773Z,1016.12
2017-10-13T05:01:27.765Z,1016.09
2017-10-13T05:04:06.233Z,1016.11
2017-10-13T05:06:33.438Z,1016.10
2017-10-13T05:08:17.051Z,1016.07
2017-10-13T05:20:21.818Z,1016.11
2017-10-13T05:21:19.518Z,1016.07
2017-10-13T05:21:31.231Z,1016.10
2017-10-13T05:21:49.844Z,1016.13
2017-10-13T05:21:58.761Z,1016.22
2017-10-13T05:22:17.902Z,1016.12
2017-10-13T05:22:25.310Z,1016.17
2017-10-13T05:22:45.273Z,1016.18
2017-10-13T05:22:55.614Z,1016.19
2017-10-13T05:23:04.093Z,1016.13
2017-10-13T05:23:31.045Z,1016.15
2017-10-13T05:23:46.210Z,1016.13
2017-10-13T05:23:54.017Z,1016.16
2017-10-13T05:24:06.909Z,1016.13
2017-10-13T05:24:24.863Z,1016.13
2017-10-13T05:24:42.047Z,1016.11
2017-10-13T05:25:00.906Z,1016.14
2017-10-13T05:25:16.859Z,1016.12
2017-10-13T05:25:24.806Z,1016.12
2017-10-13T05:25:43.882Z,1016.08
2017-10-13T05:25:59.847Z,1016.08
2017-10-13T05:26:19.805Z,1016.12
2017-10-13T05:26:35.553Z,1016.04
2017-10-13T05:26:43.205Z,1016.09
2017-10-13T05:26:51.513Z,1016.07
2017-10-13T05:27:00.042Z,1016.10
2017-10-13T05:27:18.352Z,1016.09
2017-10-13T05:27:32.109Z,1016.10
2017-10-13T05:27:49.281Z,1016.10
2017-10-13T05:28:12.117Z,1016.07
2017-10-13T05:28:38.718Z,1016.09
2017-10-13T05:28:52.645Z,1015.99
2017-10-13T05:29:05.289Z,1016.10
2017-10-13T05:29:20.882Z,1016.13
2017-10-13T05:29:28.707Z,1016.06
2017-10-13T05:29:44.960Z,1015.99
2017-10-13T05:30:01.534Z,1016.06
2017-10-13T05:30:09.934Z,1016.16
2017-10-13T05:30:24.523Z,1016.05
2017-10-13T05:30:45.538Z,1016.05
2017-10-13T05:30:57.230Z,1016.06
2017-10-13T05:31:14.520Z,1016.03
2017-10-13T05:31:40.520Z,1015.97
2017-10-13T05:32:00.550Z,1016.02
2017-10-13T05:32:21.254Z,1016.02
2017-10-13T05:32:31.389Z,1016.03
2017-10-13T05:32:50.347Z,1016.01
2017-10-13T05:33:11.293Z,1016.07
2017-10-13T05:33:24.546Z,1016.02
2017-10-13T05:33:32.762Z,1016.03
2017-10-13T05:33:41.106Z,1016.01
2017-10-13T05:33:55.169Z,1015.98
2017-10-13T05:34:03.015Z,1015.98
2017-10-13T05:34:21.114Z,1016.01
2017-10-13T05:34:30.133Z,1016.06
2017-10-13T05:34:38.811Z,1016.01
2017-10-13T05:34:54.910Z,1016.00
2017-10-13T05:35:12.631Z,1016.00
2017-10-13T05:35:29.473Z,1016.06
2017-10-13T05:35:37.688Z,1016.03
2017-10-13T05:35:54.576Z,1016.09
2017-10-13T05:36:11.738Z,1015.97
2017-10-13T05:36:20.337Z,1016.05
2017-10-13T05:36:28.302Z,1016.05
2017-10-13T05:36:45.456Z,1016.08
2017-10-13T05:36:57.243Z,1016.11
2017-10-13T05:37:06.623Z,1016.08
2017-10-13T05:37:21.592Z,1016.05
2017-10-13T05:37:30.306Z,1016.04
2017-10-13T05:37:52.522Z,1016.03
2017-10-13T05:38:00.515Z,1016.06
2017-10-13T05:38:08.470Z,1016.04
2017-10-13T05:38:25.772Z,1015.97
2017-10-13T05:39:07.654Z,1016.07
2017-10-13T05:39:34.985Z,1016.06
2017-10-13T05:39:57.944Z,1015.99
2017-10-13T05:40:34.996Z,1015.96
2017-10-13T05:40:43.741Z,1016.00
2017-10-13T05:40:58.528Z,1015.97
2017-10-13T05:41:07.071Z,1015.95
2017-10-13T05:41:15.658Z,1015.99
2017-10-13T05:41:31.220Z,1015.94
2017-10-13T05:41:51.887Z,1016.00
2017-10-13T05:42:07.233Z,1015.91
2017-10-13T05:42:15.237Z,1015.98
2017-10-13T05:42:23.192Z,1015.93
2017-10-13T05:42:44.565Z,1015.91
2017-10-13T05:43:01.056Z,1015.95
2017-10-13T05:43:16.305Z,1015.96
2017-10-13T05:43:44.294Z,1015.93
2017-10-13T05:43:59.862Z,1015.96
2017-10-13T05:44:08.987Z,1015.87
2017-10-13T05:44:35.955Z,1015.97
2017-10-13T05:45:12.272Z,1015.88
2017-10-13T05:45:30.522Z,1015.92
2017-10-13T05:45:51.097Z,1015.90
2017-10-13T05:46:03.473Z,1015.90
2017-10-13T05:46:11.485Z,1015.93
2017-10-13T05:46:28.333Z,1015.92
2017-10-13T05:46:41.293Z,1015.89
2017-10-13T05:46:48.901Z,1015.86
2017-10-13T05:46:57.598Z,1015.89
2017-10-13T05:47:05.398Z,1015.88
2017-10-13T05:47:26.073Z,1015.91
2017-10-13T05:47:44.462Z,1015.87
2017-10-13T05:47:52.461Z,1015.90
2017-10-13T05:48:08.542Z,1015.97
2017-10-13T05:48:25.417Z,1016.00
2017-10-13T05:48:33.358Z,1015.95
2017-10-13T05:48:49.318Z,1015.95
2017-10-13T05:49:24.879Z,1015.96
2017-10-13T05:49:39.654Z,1015.95
2017-10-13T05:49:47.541Z,1016.00
2017-10-13T05:49:55.496Z,1015.93
2017-10-13T05:50:04.013Z,1015.93
2017-10-13T05:50:20.125Z,1016.01
2017-10-13T05:50:36.193Z,1015.95
2017-10-13T05:50:54.449Z,1015.97
2017-10-13T05:51:10.614Z,1015.95
2017-10-13T05:51:29.781Z,1015.96
2017-10-13T05:51:52.279Z,1015.98
2017-10-13T05:52:10.621Z,1015.99
2017-10-13T05:52:18.705Z,1015.96
2017-10-13T05:52:34.223Z,1015.98
2017-10-13T05:52:49.994Z,1015.95
2017-10-13T05:52:57.617Z,1016.04
2017-10-13T05:53:14.382Z,1016.02
2017-10-13T05:53:22.906Z,1016.05
2017-10-13T05:53:31.239Z,1016.03
2017-10-13T05:53:49.625Z,1015.99
2017-10-13T05:54:06.881Z,1016.03
2017-10-13T05:54:15.130Z,1016.01
2017-10-13T05:54:23.249Z,1015.98
2017-10-13T05:54:31.586Z,1016.06
2017-10-13T05:54:47.646Z,1016.00
2017-10-13T05:55:06.372Z,1016.06
2017-10-13T05:55:36.916Z,1016.04
2017-10-13T05:55:45.890Z,1015.96
2017-10-13T05:56:04.842Z,1016.05
2017-10-13T05:56:19.286Z,1016.06
2017-10-13T05:56:35.100Z,1016.05
2017-10-13T05:56:43.818Z,1016.02
2017-10-13T05:56:51.933Z,1016.04
2017-10-13T05:57:00.084Z,1016.05
2017-10-13T05:57:16.201Z,1016.03
2017-10-13T05:57:30.863Z,1016.09
2017-10-13T05:57:41.631Z,1016.11
2017-10-13T05:58:00.614Z,1016.06
2017-10-13T05:58:08.415Z,1016.04
2017-10-13T05:58:16.370Z,1016.05
2017-10-13T05:58:35.949Z,1016.07
2017-10-13T05:58:49.530Z,1016.08
2017-10-13T05:58:57.237Z,1016.08
2017-10-13T05:59:05.394Z,1016.09
2017-10-13T05:59:13.705Z,1016.09
2017-10-13T05:59:21.650Z,1016.11
2017-10-13T05:59:29.774Z,1016.11
2017-10-13T05:59:44.661Z,1016.18
2017-10-13T06:00:01.489Z,1016.22
2017-10-13T06:00:11.014Z,1016.12
2017-10-13T06:00:24.516Z,1016.18
2017-10-13T06:00:38.727Z,1016.15
2017-10-13T06:00:52.657Z,1016.18
2017-10-13T06:01:07.466Z,1016.12
2017-10-13T06:01:26.634Z,1016.19
2017-10-13T06:01:42.982Z,1016.14
2017-10-13T06:01:58.337Z,1016.17
2017-10-13T06:02:18.801Z,1016.21
2017-10-13T06:02:33.325Z,1016.20
2017-10-13T06:02:42.498Z,1016.19
2017-10-13T06:02:50.464Z,1016.12
2017-10-13T06:03:12.373Z,1016.20
2017-10-13T06:03:20.394Z,1016.12
2017-10-13T06:03:40.609Z,1016.16
2017-10-13T06:03:56.457Z,1016.21
2017-10-13T06:04:04.585Z,1016.24
2017-10-13T06:04:21.289Z,1016.18
2017-10-13T06:04:38.478Z,1016.17
2017-10-13T06:04:47.063Z,1016.17
2017-10-13T06:04:56.598Z,1016.12
2017-10-13T06:05:04.748Z,1016.14
2017-10-13T06:05:20.110Z,1016.21
2017-10-13T06:05:28.550Z,1016.16
2017-10-13T06:05:36.903Z,1016.17
2017-10-13T06:05:55.072Z,1016.20
2017-10-13T06:06:13.592Z,1016.14
2017-10-13T06:06:31.588Z,1016.20
2017-10-13T06:06:43.058Z,1016.17
2017-10-13T06:06:54.505Z,1016.23
2017-10-13T06:07:09.526Z,1016.20
2017-10-13T06:07:20.939Z,1016.23
2017-10-13T06:07:35.373Z,1016.20
2017-10-13T06:07:44.178Z,1016.19
2017-10-13T06:07:58.892Z,1016.18
2017-10-13T06:08:19.545Z,1016.15
2017-10-13T06:08:38.989Z,1016.19
2017-10-13T06:08:57.446Z,1016.23
2017-10-13T06:09:05.969Z,1016.21
2017-10-13T06:09:13.738Z,1016.24
2017-10-13T06:09:25.274Z,1016.21
2017-10-13T06:09:33.397Z,1016.24
2017-10-13T06:09:41.350Z,1016.19
2017-10-13T06:09:58.907Z,1016.26
2017-10-13T06:10:06.630Z,1016.12
2017-10-13T06:10:32.414Z,1016.22
2017-10-13T06:10:51.686Z,1016.21
2017-10-13T06:11:15.790Z,1016.18
2017-10-13T06:11:25.682Z,1016.19
2017-10-13T06:11:34.088Z,1016.22
2017-10-13T06:11:43.418Z,1016.13
2017-10-13T06:11:59.934Z,1016.22
2017-10-13T06:12:07.054Z,1016.18
2017-10-13T06:12:24.133Z,1016.14
2017-10-13T06:12:39.108Z,1016.20
2017-10-13T06:12:53.454Z,1016.19
2017-10-13T06:13:02.258Z,1016.17
2017-10-13T06:13:19.969Z,1016.10
2017-10-13T06:13:27.624Z,1016.26
2017-10-13T06:13:35.526Z,1016.21
2017-10-13T06:13:43.673Z,1016.18
2017-10-13T06:13:51.606Z,1016.20
2017-10-13T06:13:59.741Z,1016.18
2017-10-13T06:14:15.412Z,1016.18
2017-10-13T06:14:23.712Z,1016.21
2017-10-13T06:14:38.962Z,1016.23
2017-10-13T06:14:56.906Z,1016.21
2017-10-13T06:15:04.705Z,1016.23
2017-10-13T06:15:23.401Z,1016.22
2017-10-13T06:15:31.398Z,1016.23
2017-10-13T06:15:39.742Z,1016.26
2017-10-13T06:15:47.499Z,1016.17
2017-10-13T06:16:06.736Z,1016.19
2017-10-13T06:16:28.066Z,1016.28
2017-10-13T06:16:49.801Z,1016.25
2017-10-13T06:17:05.339Z,1016.22
2017-10-13T06:17:15.452Z,1016.26
2017-10-13T06:17:31.248Z,1016.24
2017-10-13T06:17:47.852Z,1016.26
2017-10-13T06:18:00.809Z,1016.29
2017-10-13T06:18:16.053Z,1016.26
2017-10-13T06:18:32.034Z,1016.29
2017-10-13T06:18:39.854Z,1016.29
2017-10-13T06:18:52.634Z,1016.28
2017-10-13T06:19:00.364Z,1016.28
2017-10-13T06:19:13.445Z,1016.32
2017-10-13T06:19:30.113Z,1016.31
2017-10-13T06:19:46.985Z,1016.38
2017-10-13T06:20:01.956Z,1016.35
2017-10-13T06:20:13.601Z,1016.28
2017-10-13T06:20:30.669Z,1016.40
2017-10-13T06:20:38.686Z,1016.36
2017-10-13T06:20:46.842Z,1016.30
2017-10-13T06:21:01.245Z,1016.28
2017-10-13T06:21:19.857Z,1016.30
2017-10-13T06:21:35.144Z,1016.29
2017-10-13T06:21:45.292Z,1016.31
2017-10-13T06:21:55.061Z,1016.34
2017-10-13T06:22:09.009Z,1016.32
2017-10-13T06:22:22.835Z,1016.34
2017-10-13T06:22:30.882Z,1016.37
2017-10-13T06:22:39.014Z,1016.24
2017-10-13T06:22:58.273Z,1016.35
2017-10-13T06:23:05.905Z,1016.36
2017-10-13T06:23:23.510Z,1016.41
2017-10-13T06:23:31.382Z,1016.35
2017-10-13T06:23:39.337Z,1016.28
2017-10-13T06:23:57.287Z,1016.33
2017-10-13T06:24:18.395Z,1016.36
2017-10-13T06:24:26.630Z,1016.36
2017-10-13T06:24:34.746Z,1016.35
2017-10-13T06:25:00.441Z,1016.28
2017-10-13T06:25:07.850Z,1016.29
2017-10-13T06:25:23.932Z,1016.23
2017-10-13T06:25:38.510Z,1016.28
2017-10-13T06:25:47.513Z,1016.31
2017-10-13T06:26:02.421Z,1016.32
2017-10-13T06:26:11.433Z,1016.29
2017-10-13T06:26:18.966Z,1016.25
2017-10-13T06:26:27.097Z,1016.26
2017-10-13T06:26:41.190Z,1016.22
2017-10-13T06:26:49.386Z,1016.29
2017-10-13T06:26:57.533Z,1016.33
2017-10-13T06:27:12.866Z,1016.26
2017-10-13T06:27:23.166Z,1016.27
2017-10-13T06:27:32.593Z,1016.27
2017-10-13T06:27:42.378Z,1016.30
2017-10-13T06:27:52.082Z,1016.26
2017-10-13T06:28:02.071Z,1016.27
2017-10-13T06:28:18.462Z,1016.29
2017-10-13T06:28:33.778Z,1016.31
2017-10-13T06:28:42.565Z,1016.32
2017-10-13T06:28:58.035Z,1016.29
2017-10-13T06:29:12.270Z,1016.29
2017-10-13T06:29:31.485Z,1016.30
2017-10-13T06:29:39.262Z,1016.26
2017-10-13T06:29:57.962Z,1016.39
2017-10-13T06:30:05.806Z,1016.35
2017-10-13T06:30:24.975Z,1016.30
2017-10-13T06:30:44.245Z,1016.29
2017-10-13T06:30:51.665Z,1016.32
2017-10-13T06:31:09.866Z,1016.33
2017-10-13T06:31:24.313Z,1016.38
2017-10-13T06:31:40.084Z,1016.33
2017-10-13T06:31:48.101Z,1016.38
2017-10-13T06:32:04.686Z,1016.43
2017-10-13T06:32:23.662Z,1016.38
2017-10-13T06:32:31.962Z,1016.42
2017-10-13T06:32:51.257Z,1016.34
2017-10-13T06:32:59.290Z,1016.34
2017-10-13T06:33:07.233Z,1016.34
2017-10-13T06:33:15.346Z,1016.45
2017-10-13T06:33:33.241Z,1016.38
2017-10-13T06:33:40.457Z,1016.33
2017-10-13T06:33:56.546Z,1016.40
2017-10-13T06:34:13.293Z,1016.39
2017-10-13T06:34:28.085Z,1016.42
2017-10-13T06:34:41.242Z,1016.37
2017-10-13T06:34:55.178Z,1016.34
2017-10-13T06:35:03.403Z,1016.45
2017-10-13T06:35:18.618Z,1016.43
2017-10-13T06:35:35.862Z,1016.38
2017-10-13T06:35:44.095Z,1016.44
2017-10-13T06:35:52.421Z,1016.41
2017-10-13T06:36:04.322Z,1016.45
2017-10-13T06:36:22.493Z,1016.41
2017-10-13T06:36:30.091Z,1016.37
2017-10-13T06:36:48.990Z,1016.43
2017-10-13T06:36:57.010Z,1016.43
2017-10-13T06:37:10.274Z,1016.41
2017-10-13T06:37:18.910Z,1016.37
2017-10-13T06:37:27.036Z,1016.45
2017-10-13T06:37:35.197Z,1016.35
2017-10-13T06:37:50.467Z,1016.46
2017-10-13T06:38:08.700Z,1016.45
2017-10-13T06:38:24.790Z,1016.47
2017-10-13T06:38:33.475Z,1016.43
2017-10-13T06:38:50.710Z,1016.42
2017-10-13T06:38:58.519Z,1016.45
2017-10-13T06:39:06.686Z,1016.43
2017-10-13T06:39:14.958Z,1016.43
2017-10-13T06:39:38.197Z,1016.42
2017-10-13T06:39:52.237Z,1016.42
2017-10-13T06:40:09.213Z,1016.42
2017-10-13T06:40:25.335Z,1016.41
2017-10-13T06:40:42.481Z,1016.42
2017-10-13T06:41:08.625Z,1016.47
2017-10-13T06:41:17.657Z,1016.41
2017-10-13T06:41:33.328Z,1016.44
2017-10-13T06:41:42.899Z,1016.46
2017-10-13T06:41:54.766Z,1016.47
2017-10-13T06:42:10.900Z,1016.40
2017-10-13T06:42:26.303Z,1016.46
2017-10-13T06:42:37.063Z,1016.48
2017-10-13T06:43:00.109Z,1016.42
2017-10-13T06:43:10.362Z,1016.46
2017-10-13T06:43:24.882Z,1016.48
2017-10-13T06:43:35.446Z,1016.49
2017-10-13T06:43:45.434Z,1016.46
2017-10-13T06:43:54.883Z,1016.43
2017-10-13T06:44:06.176Z,1016.45
2017-10-13T06:44:23.311Z,1016.45
2017-10-13T06:44:39.445Z,1016.40
2017-10-13T06:44:55.066Z,1016.45
2017-10-13T06:45:11.567Z,1016.48
2017-10-13T06:45:19.978Z,1016.41
2017-10-13T06:45:28.293Z,1016.51
2017-10-13T06:45:36.421Z,1016.48
2017-10-13T06:45:51.649Z,1016.47
2017-10-13T06:46:05.898Z,1016.49
2017-10-13T06:46:23.970Z,1016.54
2017-10-13T06:46:49.555Z,1016.51
2017-10-13T06:46:58.346Z,1016.41
2017-10-13T06:47:12.399Z,1016.46
2017-10-13T06:47:34.426Z,1016.48
2017-10-13T06:47:44.329Z,1016.45
2017-10-13T06:47:56.838Z,1016.47
2017-10-13T06:48:09.528Z,1016.52
2017-10-13T06:48:25.984Z,1016.52
2017-10-13T06:48:34.792Z,1016.49
2017-10-13T06:48:44.328Z,1016.51
2017-10-13T06:49:01.925Z,1016.53
2017-10-13T06:49:18.598Z,1016.47
2017-10-13T06:49:33.087Z,1016.50
2017-10-13T06:49:41.882Z,1016.52
2017-10-13T06:49:50.221Z,1016.48
2017-10-13T06:49:58.544Z,1016.61
2017-10-13T06:50:15.173Z,1016.55
2017-10-13T06:50:32.426Z,1016.54
2017-10-13T06:50:48.490Z,1016.50
2017-10-13T06:50:57.856Z,1016.54
2017-10-13T06:51:14.888Z,1016.59
2017-10-13T06:51:45.353Z,1016.57
2017-10-13T06:51:53.232Z,1016.60
2017-10-13T06:52:06.962Z,1016.61
2017-10-13T06:52:26.301Z,1016.58
2017-10-13T06:52:43.902Z,1016.58
2017-10-13T06:53:03.477Z,1016.57
2017-10-13T06:53:26.221Z,1016.57
2017-10-13T06:53:42.570Z,1016.58
2017-10-13T06:53:58.045Z,1016.58
2017-10-13T06:54:13.922Z,1016.52
2017-10-13T06:54:21.922Z,1016.54
2017-10-13T06:54:30.274Z,1016.56
2017-10-13T06:54:53.658Z,1016.63
2017-10-13T06:55:01.774Z,1016.64
2017-10-13T06:55:09.873Z,1016.61
2017-10-13T06:55:24.200Z,1016.62
2017-10-13T06:55:47.001Z,1016.64
2017-10-13T06:56:02.864Z,1016.61
2017-10-13T06:56:12.046Z,1016.62
2017-10-13T06:56:28.721Z,1016.70
2017-10-13T06:56:44.997Z,1016.68
2017-10-13T06:57:06.690Z,1016.65
2017-10-13T06:57:15.562Z,1016.66
2017-10-13T06:57:23.709Z,1016.63
2017-10-13T06:57:44.374Z,1016.70
2017-10-13T06:57:59.862Z,1016.61
2017-10-13T06:58:21.606Z,1016.70
2017-10-13T06:58:31.430Z,1016.73
2017-10-13T06:58:41.304Z,1016.77
2017-10-13T06:58:57.814Z,1016.71
2017-10-13T06:59:06.437Z,1016.72
2017-10-13T06:59:53.393Z,1016.68
2017-10-13T07:00:02.971Z,1016.71
2017-10-13T07:00:13.790Z,1016.66
2017-10-13T07:00:24.012Z,1016.64
2017-10-13T07:00:45.001Z,1016.70
2017-10-13T07:01:07.810Z,1016.68
2017-10-13T07:01:20.862Z,1016.66
2017-10-13T07:01:31.722Z,1016.71
2017-10-13T07:01:40.014Z,1016.68
2017-10-13T07:01:47.757Z,1016.64
2017-10-13T07:01:55.906Z,1016.71
2017-10-13T07:02:14.501Z,1016.68
2017-10-13T07:02:22.823Z,1016.63
2017-10-13T07:02:43.690Z,1016.74
2017-10-13T07:02:51.504Z,1016.63
2017-10-13T07:02:59.822Z,1016.67
2017-10-13T07:03:28.223Z,1016.61
2017-10-13T07:03:52.700Z,1016.61
2017-10-13T07:04:01.281Z,1016.65
2017-10-13T07:04:09.238Z,1016.57
2017-10-13T07:04:17.378Z,1016.65
2017-10-13T07:04:44.161Z,1016.61
2017-10-13T07:04:59.237Z,1016.70
2017-10-13T07:05:26.542Z,1016.65
2017-10-13T07:05:54.673Z,1016.67
2017-10-13T07:06:03.184Z,1016.66
2017-10-13T07:06:19.071Z,1016.71
2017-10-13T07:06:37.653Z,1016.71
2017-10-13T07:07:03.709Z,1016.68
2017-10-13T07:07:21.392Z,1016.77
2017-10-13T07:07:29.574Z,1016.75
2017-10-13T07:07:47.477Z,1016.70
2017-10-13T07:08:00.132Z,1016.65
2017-10-13T07:08:14.711Z,1016.74
2017-10-13T07:08:31.583Z,1016.76
2017-10-13T07:08:39.986Z,1016.66
2017-10-13T07:09:03.887Z,1016.76
2017-10-13T07:09:11.675Z,1016.70
2017-10-13T07:09:28.354Z,1016.73
2017-10-13T07:09:38.622Z,1016.67
2017-10-13T07:10:10.774Z,1016.71
2017-10-13T07:10:21.330Z,1016.74
2017-10-13T07:10:42.301Z,1016.70
2017-10-13T07:10:50.007Z,1016.79
2017-10-13T07:11:07.765Z,1016.67
2017-10-13T07:11:25.673Z,1016.76
2017-10-13T07:11:53.730Z,1016.74
2017-10-13T07:12:02.266Z,1016.74
2017-10-13T07:12:16.336Z,1016.73
2017-10-13T07:12:31.118Z,1016.75
2017-10-13T07:12:45.541Z,1016.69
2017-10-13T07:13:09.454Z,1016.76
2017-10-13T07:13:27.405Z,1016.77
2017-10-13T07:13:44.385Z,1016.77
2017-10-13T07:13:51.969Z,1016.79
2017-10-13T07:14:09.866Z,1016.78
2017-10-13T07:14:17.291Z,1016.80
2017-10-13T07:14:25.582Z,1016.76
2017-10-13T07:14:34.958Z,1016.77
2017-10-13T07:14:59.761Z,1016.80
2017-10-13T07:15:22.696Z,1016.74
2017-10-13T07:15:33.862Z,1016.81
2017-10-13T07:15:47.306Z,1016.84
2017-10-13T07:16:02.655Z,1016.77
2017-10-13T07:16:19.564Z,1016.78
2017-10-13T07:16:40.246Z,1016.80
2017-10-13T07:16:50.106Z,1016.76
2017-10-13T07:17:02.793Z,1016.83
2017-10-13T07:17:21.269Z,1016.84
2017-10-13T07:17:45.774Z,1016.85
2017-10-13T07:18:00.805Z,1016.79
2017-10-13T07:18:17.386Z,1016.85
2017-10-13T07:18:35.745Z,1016.82
2017-10-13T07:18:43.142Z,1016.84
2017-10-13T07:18:59.038Z,1016.81
2017-10-13T07:19:25.510Z,1016.84
2017-10-13T07:19:43.363Z,1016.82
2017-10-13T07:19:58.517Z,1016.76
2017-10-13T07:20:12.106Z,1016.78
2017-10-13T07:20:28.457Z,1016.84
2017-10-13T07:20:46.437Z,1016.74
2017-10-13T07:21:02.395Z,1016.72
2017-10-13T07:21:22.329Z,1016.70
2017-10-13T07:21:33.684Z,1016.69
2017-10-13T07:21:44.438Z,1016.70
2017-10-13T07:21:53.609Z,1016.75
2017-10-13T07:22:03.253Z,1016.67
2017-10-13T07:22:12.796Z,1016.80
2017-10-13T07:22:27.282Z,1016.76
2017-10-13T07:22:36.519Z,1016.80
2017-10-13T07:22:49.782Z,1016.70
2017-10-13T07:22:59.018Z,1016.75
2017-10-13T07:23:24.306Z,1016.80
2017-10-13T07:23:32.230Z,1016.75
2017-10-13T07:23:40.562Z,1016.76
2017-10-13T07:23:55.945Z,1016.71
2017-10-13T07:24:17.011Z,1016.81
2017-10-13T07:24:26.059Z,1016.73
2017-10-13T07:24:34.589Z,1016.78
2017-10-13T07:24:50.798Z,1016.71
2017-10-13T07:25:03.221Z,1016.76
2017-10-13T07:25:13.825Z,1016.74
2017-10-13T07:25:29.326Z,1016.71
2017-10-13T07:25:46.193Z,1016.73
2017-10-13T07:25:57.617Z,1016.72
2017-10-13T07:26:16.596Z,1016.75
2017-10-13T07:26:24.418Z,1016.74
2017-10-13T07:26:54.807Z,1016.79
2017-10-13T07:27:02.903Z,1016.77
2017-10-13T07:27:17.780Z,1016.62
2017-10-13T07:27:32.970Z,1016.79
2017-10-13T07:27:40.194Z,1016.75
2017-10-13T07:27:48.305Z,1016.73
2017-10-13T07:28:03.214Z,1016.72
2017-10-13T07:28:13.158Z,1016.72
2017-10-13T07:28:31.142Z,1016.73
2017-10-13T07:28:42.022Z,1016.71
2017-10-13T07:28:52.075Z,1016.73
2017-10-13T07:29:00.392Z,1016.76
2017-10-13T07:29:17.677Z,1016.72
2017-10-13T07:29:31.570Z,1016.76
2017-10-13T07:29:39.454Z,1016.81
2017-10-13T07:29:47.593Z,1016.71
2017-10-13T07:30:11.132Z,1016.80
2017-10-13T07:30:20.822Z,1016.82
2017-10-13T07:30:29.294Z,1016.75
2017-10-13T07:30:40.613Z,1016.82
2017-10-13T07:30:50.823Z,1016.81
2017-10-13T07:31:00.001Z,1016.73
2017-10-13T07:31:17.874Z,1016.73
2017-10-13T07:31:35.961Z,1016.81
2017-10-13T07:31:57.067Z,1016.81
2017-10-13T07:32:06.106Z,1016.75
2017-10-13T07:32:20.605Z,1016.81
2017-10-13T07:32:39.759Z,1016.77
2017-10-13T07:32:51.014Z,1016.74
2017-10-13T07:33:10.853Z,1016.76
2017-10-13T07:33:28.734Z,1016.76
2017-10-13T07:33:36.345Z,1016.83
2017-10-13T07:33:44.468Z,1016.81
2017-10-13T07:34:02.367Z,1016.73